createdAt,value
2019-04-27T00:00:09.267Z,9.65
2019-04-27T00:03:02.262Z,9.63
2019-04-27T00:05:48.786Z,9.74
2019-04-27T00:08:28.508Z,9.78
2019-04-27T00:11:17.113Z,9.74
2019-04-27T00:13:47.133Z,9.75
2019-04-27T00:16:36.070Z,9.84
2019-04-27T00:19:16.439Z,9.78
2019-04-27T00:21:58.781Z,9.77
2019-04-27T00:24:28.820Z,9.78
2019-04-27T00:26:58.816Z,9.78
2019-04-27T00:29:28.837Z,9.81
2019-04-27T00:31:58.818Z,9.83
2019-04-27T00:34:28.762Z,9.74
2019-04-27T00:37:24.045Z,9.68
2019-04-27T00:40:03.536Z,9.63
2019-04-27T00:42:35.640Z,9.49
2019-04-27T00:45:07.024Z,9.39
2019-04-27T00:47:37.069Z,9.44
2019-04-27T00:50:08.327Z,9.45
2019-04-27T00:52:38.216Z,9.40
2019-04-27T00:55:08.221Z,9.41
2019-04-27T00:57:58.993Z,9.44
2019-04-27T01:00:47.284Z,9.52
2019-04-27T01:03:40.563Z,9.52
2019-04-27T01:06:10.585Z,9.54
2019-04-27T01:08:40.531Z,9.66
2019-04-27T01:11:10.502Z,9.70
2019-04-27T01:13:40.540Z,9.66
2019-04-27T01:16:13.177Z,9.30
2019-04-27T01:18:42.367Z,9.04
2019-04-27T01:21:12.448Z,9.05
2019-04-27T01:23:42.460Z,8.88
2019-04-27T01:26:30.567Z,8.58
2019-04-27T01:29:04.148Z,8.99
2019-04-27T01:31:34.054Z,8.98
2019-04-27T01:34:04.032Z,8.52
2019-04-27T01:36:33.908Z,8.44
2019-04-27T01:39:06.429Z,8.27
2019-04-27T01:41:36.437Z,8.30
2019-04-27T01:44:06.420Z,8.07
2019-04-27T01:46:36.345Z,8.16
2019-04-27T01:49:06.699Z,8.00
2019-04-27T01:51:36.760Z,7.83
2019-04-27T01:54:10.220Z,8.18
2019-04-27T01:56:40.007Z,7.95
2019-04-27T01:59:09.978Z,7.73
2019-04-27T02:02:03.217Z,7.87
2019-04-27T02:04:43.868Z,8.15
2019-04-27T02:07:13.878Z,8.16
2019-04-27T02:09:43.865Z,8.40
2019-04-27T02:12:13.981Z,8.44
2019-04-27T02:14:43.948Z,8.19
2019-04-27T02:17:13.991Z,8.23
2019-04-27T02:19:43.984Z,8.03
2019-04-27T02:22:14.814Z,8.03
2019-04-27T02:24:44.831Z,8.09
2019-04-27T02:27:16.551Z,8.30
2019-04-27T02:30:04.113Z,8.37
2019-04-27T02:32:55.844Z,8.58
2019-04-27T02:35:25.745Z,8.65
2019-04-27T02:37:55.655Z,8.70
2019-04-27T02:40:55.818Z,8.59
2019-04-27T02:43:33.200Z,8.68
2019-04-27T02:46:04.351Z,8.48
2019-04-27T02:48:34.385Z,8.60
2019-04-27T02:51:06.447Z,8.66
2019-04-27T02:53:55.929Z,8.71
2019-04-27T02:56:26.022Z,8.53
2019-04-27T02:58:55.945Z,8.73
2019-04-27T03:01:30.585Z,8.81
2019-04-27T03:04:00.549Z,8.79
2019-04-27T03:06:31.763Z,8.78
2019-04-27T03:09:01.629Z,8.68
2019-04-27T03:11:33.288Z,8.63
2019-04-27T03:14:40.603Z,8.80
2019-04-27T03:17:22.769Z,8.74
2019-04-27T03:20:19.947Z,8.78
2019-04-27T03:22:54.837Z,8.87
2019-04-27T03:25:45.518Z,8.50
2019-04-27T03:28:19.671Z,8.67
2019-04-27T03:30:52.209Z,8.83
2019-04-27T03:33:22.169Z,8.75
2019-04-27T03:35:53.279Z,8.44
2019-04-27T03:38:23.538Z,8.19
2019-04-27T03:40:53.566Z,8.24
2019-04-27T03:43:24.972Z,8.48
2019-04-27T03:45:55.495Z,8.49
2019-04-27T03:48:29.029Z,8.41
2019-04-27T03:51:23.081Z,8.48
2019-04-27T03:54:04.097Z,8.48
2019-04-27T03:56:56.151Z,8.50
2019-04-27T03:59:34.514Z,8.50
2019-04-27T04:02:04.589Z,8.48
2019-04-27T04:04:34.604Z,8.38
2019-04-27T04:07:22.766Z,8.43
2019-04-27T04:09:52.806Z,8.54
2019-04-27T04:12:40.762Z,8.61
2019-04-27T04:15:14.438Z,8.50
2019-04-27T04:17:44.469Z,8.47
2019-04-27T04:20:14.651Z,8.45
2019-04-27T04:22:44.590Z,8.45
2019-04-27T04:25:16.242Z,8.57
2019-04-27T04:27:46.063Z,8.54
2019-04-27T04:30:16.171Z,8.48
2019-04-27T04:32:46.073Z,8.42
2019-04-27T04:35:21.178Z,8.42
2019-04-27T04:37:52.922Z,8.45
2019-04-27T04:40:30.669Z,8.42
2019-04-27T04:43:06.080Z,8.40
2019-04-27T04:46:00.516Z,8.51
2019-04-27T04:48:30.500Z,8.63
2019-04-27T04:51:00.477Z,8.57
2019-04-27T04:53:31.513Z,8.70
2019-04-27T04:56:01.534Z,8.64
2019-04-27T04:58:31.520Z,8.76
2019-04-27T05:01:01.991Z,8.78
2019-04-27T05:03:32.093Z,8.84
2019-04-27T05:06:02.028Z,8.93
2019-04-27T05:08:33.174Z,8.97
2019-04-27T05:11:04.311Z,9.00
2019-04-27T05:13:34.231Z,9.21
2019-04-27T05:16:04.145Z,9.10
2019-04-27T05:18:33.958Z,9.18
2019-04-27T05:21:13.690Z,9.08
2019-04-27T05:23:43.703Z,9.30
2019-04-27T05:26:13.657Z,9.24
2019-04-27T05:28:43.480Z,9.34
2019-04-27T05:31:13.354Z,9.21
2019-04-27T05:33:43.283Z,9.32
2019-04-27T05:36:13.449Z,9.43
2019-04-27T05:38:45.975Z,9.35
2019-04-27T05:41:15.176Z,9.48
2019-04-27T05:44:13.233Z,9.50
2019-04-27T05:46:53.707Z,9.71
2019-04-27T05:49:31.087Z,9.74
2019-04-27T05:52:01.077Z,9.90
2019-04-27T05:54:31.055Z,9.89
2019-04-27T05:57:00.874Z,9.64
2019-04-27T05:59:30.854Z,9.46
2019-04-27T06:02:00.830Z,9.51
2019-04-27T06:04:30.758Z,9.37
2019-04-27T06:07:01.124Z,9.24
2019-04-27T06:09:31.026Z,9.33
2019-04-27T06:12:00.854Z,9.37
2019-04-27T06:14:30.686Z,9.03
2019-04-27T06:17:00.588Z,9.13
2019-04-27T06:19:30.419Z,9.18
2019-04-27T06:22:01.343Z,9.20
2019-04-27T06:24:31.482Z,9.20
2019-04-27T06:27:01.413Z,9.37
2019-04-27T06:29:31.325Z,9.61
2019-04-27T06:32:01.333Z,9.86
2019-04-27T06:34:31.315Z,10.02
2019-04-27T06:37:01.250Z,10.02
2019-04-27T06:39:31.143Z,9.93
2019-04-27T06:42:01.416Z,10.02
2019-04-27T06:44:31.359Z,10.16
2019-04-27T06:47:01.294Z,10.38
2019-04-27T06:49:31.217Z,10.37
2019-04-27T06:52:01.075Z,10.37
2019-04-27T06:54:31.089Z,10.46
2019-04-27T06:57:00.987Z,10.97
2019-04-27T06:59:30.893Z,11.30
2019-04-27T07:02:00.975Z,11.04
2019-04-27T07:04:31.832Z,11.22
2019-04-27T07:07:01.868Z,11.58
2019-04-27T07:09:31.729Z,11.75
2019-04-27T07:12:01.784Z,11.42
2019-04-27T07:14:31.666Z,11.64
2019-04-27T07:17:01.594Z,11.63
2019-04-27T07:19:31.547Z,11.83
2019-04-27T07:22:01.473Z,11.72
2019-04-27T07:24:31.491Z,11.91
2019-04-27T07:27:01.342Z,11.74
2019-04-27T07:29:31.184Z,12.07
2019-04-27T07:32:02.156Z,12.20
2019-04-27T07:34:32.230Z,12.16
2019-04-27T07:37:02.101Z,11.95
2019-04-27T07:39:32.002Z,11.56
2019-04-27T07:42:01.942Z,11.27
2019-04-27T07:44:38.954Z,11.56
2019-04-27T07:47:23.018Z,11.51
2019-04-27T07:49:52.938Z,11.65
2019-04-27T07:52:22.996Z,11.61
2019-04-27T07:54:52.825Z,11.34
2019-04-27T07:57:22.782Z,11.49
2019-04-27T07:59:52.700Z,11.68
2019-04-27T08:02:22.614Z,12.51
2019-04-27T08:04:52.555Z,12.36
2019-04-27T08:07:22.386Z,12.49
2019-04-27T08:09:52.323Z,12.29
2019-04-27T08:12:22.362Z,11.94
2019-04-27T08:14:52.156Z,11.79
2019-04-27T08:17:23.097Z,11.81
2019-04-27T08:19:53.076Z,12.06
2019-04-27T08:22:23.949Z,12.34
2019-04-27T08:24:53.854Z,12.31
2019-04-27T08:27:42.219Z,12.12
2019-04-27T08:30:43.509Z,12.49
2019-04-27T08:33:13.808Z,13.02
2019-04-27T08:35:43.729Z,12.94
2019-04-27T08:38:13.710Z,12.89
2019-04-27T08:40:43.595Z,12.94
2019-04-27T08:43:13.626Z,13.39
2019-04-27T08:45:43.488Z,12.78
2019-04-27T08:48:13.421Z,13.23
2019-04-27T08:50:43.294Z,13.85
2019-04-27T08:53:13.188Z,14.30
2019-04-27T08:55:43.028Z,14.00
2019-04-27T08:58:13.957Z,13.75
2019-04-27T09:00:43.951Z,13.91
2019-04-27T09:03:13.920Z,14.20
2019-04-27T09:05:43.942Z,14.17
2019-04-27T09:08:39.031Z,13.93
2019-04-27T09:11:29.019Z,14.02
2019-04-27T09:14:09.107Z,14.23
2019-04-27T09:17:02.969Z,15.06
2019-04-27T09:19:49.224Z,14.66
2019-04-27T09:22:20.762Z,14.71
2019-04-27T09:24:50.875Z,15.13
2019-04-27T09:27:20.852Z,15.75
2019-04-27T09:29:50.792Z,15.53
2019-04-27T09:32:20.888Z,15.52
2019-04-27T09:34:50.908Z,15.42
2019-04-27T09:37:20.841Z,15.26
2019-04-27T09:39:50.743Z,15.69
2019-04-27T09:42:20.654Z,16.03
2019-04-27T09:44:50.497Z,15.27
2019-04-27T09:47:20.326Z,14.77
2019-04-27T09:49:50.241Z,14.11
2019-04-27T09:52:26.305Z,13.94
2019-04-27T09:54:51.826Z,14.10
2019-04-27T09:57:21.725Z,13.76
2019-04-27T09:59:51.711Z,13.90
2019-04-27T10:02:21.603Z,13.62
2019-04-27T10:04:51.800Z,13.45
2019-04-27T10:07:21.865Z,13.94
2019-04-27T10:09:51.699Z,13.99
2019-04-27T10:12:21.684Z,13.62
2019-04-27T10:14:51.582Z,13.81
2019-04-27T10:17:21.408Z,13.85
2019-04-27T10:19:51.262Z,14.62
2019-04-27T10:22:21.298Z,14.59
2019-04-27T10:24:51.230Z,14.57
2019-04-27T10:27:21.070Z,14.97
2019-04-27T10:29:51.857Z,16.37
2019-04-27T10:32:21.761Z,14.51
2019-04-27T10:34:51.627Z,14.56
2019-04-27T10:37:21.547Z,14.27
2019-04-27T10:39:51.450Z,13.84
2019-04-27T10:42:21.284Z,13.62
2019-04-27T10:44:51.108Z,13.83
2019-04-27T10:47:21.010Z,13.79
2019-04-27T10:49:50.863Z,14.42
2019-04-27T10:52:20.847Z,14.50
2019-04-27T10:54:50.674Z,14.66
2019-04-27T10:57:20.487Z,14.09
2019-04-27T10:59:50.347Z,13.82
2019-04-27T11:02:20.269Z,13.91
2019-04-27T11:04:58.924Z,14.62
2019-04-27T11:07:32.927Z,15.19
2019-04-27T11:10:03.389Z,15.47
2019-04-27T11:12:33.344Z,16.71
2019-04-27T11:15:03.321Z,16.24
2019-04-27T11:17:33.261Z,15.07
2019-04-27T11:20:03.254Z,15.45
2019-04-27T11:22:33.252Z,14.30
2019-04-27T11:25:03.062Z,14.42
2019-04-27T11:27:32.964Z,14.88
2019-04-27T11:30:02.872Z,14.88
2019-04-27T11:32:34.628Z,15.49
2019-04-27T11:35:13.408Z,15.37
2019-04-27T11:37:43.334Z,15.52
2019-04-27T11:40:13.804Z,14.99
2019-04-27T11:42:43.771Z,15.08
2019-04-27T11:45:13.947Z,14.78
2019-04-27T11:47:43.946Z,14.82
2019-04-27T11:50:14.326Z,14.78
2019-04-27T11:52:45.715Z,15.06
2019-04-27T11:55:17.275Z,15.51
2019-04-27T11:57:47.306Z,15.34
2019-04-27T12:00:19.763Z,15.16
2019-04-27T12:02:49.733Z,15.50
2019-04-27T12:05:19.822Z,15.94
2019-04-27T12:07:49.731Z,16.17
2019-04-27T12:10:20.326Z,15.64
2019-04-27T12:12:50.219Z,14.74
2019-04-27T12:15:20.995Z,15.04
2019-04-27T12:17:50.925Z,14.38
2019-04-27T12:20:20.880Z,14.90
2019-04-27T12:22:50.827Z,14.84
2019-04-27T12:25:21.782Z,14.58
2019-04-27T12:28:10.781Z,14.30
2019-04-27T12:30:49.162Z,14.16
2019-04-27T12:33:19.071Z,13.94
2019-04-27T12:35:48.969Z,14.23
2019-04-27T12:38:20.185Z,13.97
2019-04-27T12:40:50.083Z,14.40
2019-04-27T12:43:20.199Z,14.61
2019-04-27T12:45:50.194Z,14.62
2019-04-27T12:48:20.289Z,14.58
2019-04-27T12:50:50.222Z,15.13
2019-04-27T12:53:49.952Z,15.22
2019-04-27T12:56:18.190Z,14.60
2019-04-27T12:58:56.484Z,14.45
2019-04-27T13:01:26.906Z,14.94
2019-04-27T13:03:59.063Z,15.16
2019-04-27T13:06:29.598Z,15.32
2019-04-27T13:08:59.558Z,15.90
2019-04-27T13:11:29.546Z,15.90
2019-04-27T13:13:59.467Z,15.97
2019-04-27T13:16:30.509Z,15.52
2019-04-27T13:19:00.397Z,15.35
2019-04-27T13:21:30.438Z,15.66
2019-04-27T13:24:04.510Z,16.10
2019-04-27T13:26:33.063Z,16.37
2019-04-27T13:29:03.062Z,16.65
2019-04-27T13:31:32.966Z,15.38
2019-04-27T13:34:02.942Z,15.71
2019-04-27T13:36:33.153Z,15.52
2019-04-27T13:39:06.343Z,15.58
2019-04-27T13:41:36.644Z,15.96
2019-04-27T13:44:06.715Z,15.42
2019-04-27T13:46:58.470Z,14.97
2019-04-27T13:49:37.845Z,15.35
2019-04-27T13:52:12.863Z,14.93
2019-04-27T13:54:42.799Z,15.52
2019-04-27T13:57:12.844Z,15.71
2019-04-27T13:59:42.699Z,14.88
2019-04-27T14:02:13.544Z,14.68
2019-04-27T14:04:43.607Z,15.25
2019-04-27T14:07:13.579Z,15.63
2019-04-27T14:09:43.552Z,15.36
2019-04-27T14:12:21.318Z,14.95
2019-04-27T14:14:51.498Z,14.82
2019-04-27T14:17:21.602Z,14.93
2019-04-27T14:19:51.451Z,14.75
2019-04-27T14:22:22.339Z,15.15
2019-04-27T14:24:52.227Z,15.29
2019-04-27T14:27:25.501Z,15.10
2019-04-27T14:29:57.099Z,14.80
2019-04-27T14:32:28.703Z,14.22
2019-04-27T14:34:59.209Z,14.68
2019-04-27T14:37:29.281Z,15.20
2019-04-27T14:39:59.784Z,14.10
2019-04-27T14:42:31.257Z,14.61
2019-04-27T14:45:01.233Z,14.55
2019-04-27T14:47:32.320Z,14.65
2019-04-27T14:50:02.369Z,14.71
2019-04-27T14:52:32.366Z,14.27
2019-04-27T14:55:02.401Z,14.57
2019-04-27T14:57:32.418Z,15.21
2019-04-27T15:00:02.397Z,15.38
2019-04-27T15:02:32.330Z,15.34
2019-04-27T15:05:02.181Z,16.05
2019-04-27T15:07:32.027Z,14.90
2019-04-27T15:10:01.907Z,14.50
2019-04-27T15:12:32.431Z,15.12
2019-04-27T15:15:02.455Z,15.26
2019-04-27T15:17:32.287Z,14.48
2019-04-27T15:20:06.604Z,15.09
2019-04-27T15:22:36.613Z,15.75
2019-04-27T15:25:11.954Z,15.72
2019-04-27T15:27:43.627Z,16.15
2019-04-27T15:30:22.186Z,15.54
2019-04-27T15:33:16.043Z,15.12
2019-04-27T15:35:48.814Z,15.08
2019-04-27T15:38:22.782Z,15.26
2019-04-27T15:41:10.549Z,15.06
2019-04-27T15:43:41.636Z,15.20
2019-04-27T15:46:11.896Z,15.30
2019-04-27T15:48:41.829Z,15.10
2019-04-27T15:51:17.408Z,15.21
2019-04-27T15:53:45.828Z,15.94
2019-04-27T15:56:15.433Z,16.13
2019-04-27T15:58:45.424Z,16.16
2019-04-27T16:01:15.415Z,17.17
2019-04-27T16:03:45.442Z,16.74
2019-04-27T16:06:15.438Z,16.88
2019-04-27T16:08:47.053Z,15.58
2019-04-27T16:11:19.690Z,14.87
2019-04-27T16:13:48.929Z,14.50
2019-04-27T16:16:19.530Z,14.49
2019-04-27T16:18:49.507Z,14.73
2019-04-27T16:21:20.059Z,14.59
2019-04-27T16:23:50.156Z,14.76
2019-04-27T16:26:20.271Z,15.10
2019-04-27T16:28:53.422Z,15.04
2019-04-27T16:31:24.823Z,14.67
2019-04-27T16:33:54.110Z,14.44
2019-04-27T16:36:25.211Z,14.63
2019-04-27T16:39:08.310Z,14.85
2019-04-27T16:41:41.852Z,14.76
2019-04-27T16:44:11.317Z,15.01
2019-04-27T16:46:43.035Z,14.81
2019-04-27T16:49:14.809Z,14.69
2019-04-27T16:51:44.942Z,15.04
2019-04-27T16:54:17.672Z,14.72
2019-04-27T16:56:53.089Z,14.43
2019-04-27T16:59:39.255Z,14.44
2019-04-27T17:01:50.438Z,14.15
2019-04-27T17:04:20.310Z,13.95
2019-04-27T17:06:50.243Z,13.80
2019-04-27T17:09:20.161Z,14.05
2019-04-27T17:11:51.745Z,14.07
2019-04-27T17:14:59.072Z,14.31
2019-04-27T17:17:38.666Z,14.43
2019-04-27T17:20:12.911Z,14.15
2019-04-27T17:22:41.591Z,14.10
2019-04-27T17:25:15.337Z,13.91
2019-04-27T17:27:49.634Z,13.99
2019-04-27T17:30:20.125Z,13.77
2019-04-27T17:32:58.827Z,14.09
2019-04-27T17:35:30.290Z,13.75
2019-04-27T17:38:03.722Z,13.79
2019-04-27T17:40:34.519Z,13.89
2019-04-27T17:43:06.819Z,13.73
2019-04-27T17:45:36.181Z,13.72
2019-04-27T17:48:10.687Z,13.43
2019-04-27T17:50:38.760Z,12.59
2019-04-27T17:53:08.769Z,12.32
2019-04-27T17:55:38.767Z,12.34
2019-04-27T17:58:08.761Z,12.14
2019-04-27T18:00:43.631Z,12.33
2019-04-27T18:03:12.542Z,12.33
2019-04-27T18:05:43.753Z,12.14
2019-04-27T18:08:18.337Z,12.17
2019-04-27T18:10:46.472Z,11.97
2019-04-27T18:13:19.006Z,11.96
2019-04-27T18:15:53.991Z,11.78
2019-04-27T18:18:33.083Z,11.56
2019-04-27T18:21:02.993Z,11.25
2019-04-27T18:23:34.838Z,10.99
2019-04-27T18:26:17.564Z,10.79
2019-04-27T18:28:45.950Z,10.67
2019-04-27T18:31:17.920Z,10.77
2019-04-27T18:33:48.984Z,10.57
2019-04-27T18:36:19.016Z,10.72
2019-04-27T18:38:49.665Z,10.86
2019-04-27T18:41:19.799Z,10.82
2019-04-27T18:43:52.264Z,10.77
2019-04-27T18:46:24.458Z,10.36
2019-04-27T18:49:11.940Z,9.40
2019-04-27T18:52:04.457Z,8.69
2019-04-27T18:54:33.151Z,8.26
2019-04-27T18:57:04.877Z,8.01
2019-04-27T18:59:34.945Z,8.11
2019-04-27T19:02:04.970Z,8.24
2019-04-27T19:04:34.972Z,8.09
2019-04-27T19:07:04.960Z,8.05
2019-04-27T19:09:35.327Z,7.90
2019-04-27T19:12:05.537Z,7.99
2019-04-27T19:14:35.446Z,8.24
2019-04-27T19:17:05.446Z,8.07
2019-04-27T19:19:35.373Z,8.07
2019-04-27T19:22:05.458Z,8.07
2019-04-27T19:24:35.379Z,8.24
2019-04-27T19:27:42.737Z,8.08
2019-04-27T19:30:24.715Z,8.19
2019-04-27T19:32:54.637Z,8.35
2019-04-27T19:35:24.655Z,8.16
2019-04-27T19:37:54.642Z,8.26
2019-04-27T19:40:24.685Z,8.63
2019-04-27T19:42:54.789Z,8.09
2019-04-27T19:45:24.830Z,8.33
2019-04-27T19:47:54.733Z,8.24
2019-04-27T19:50:24.730Z,8.17
2019-04-27T19:52:54.640Z,7.87
2019-04-27T19:55:24.620Z,7.89
2019-04-27T19:57:54.530Z,7.87
2019-04-27T20:00:48.278Z,8.07
2019-04-27T20:03:21.553Z,7.88
2019-04-27T20:05:52.515Z,7.77
2019-04-27T20:08:24.839Z,7.71
2019-04-27T20:10:54.762Z,7.65
2019-04-27T20:13:24.710Z,7.64
2019-04-27T20:15:57.443Z,7.87
2019-04-27T20:18:27.558Z,7.72
2019-04-27T20:20:57.457Z,7.84
2019-04-27T20:23:27.391Z,7.68
2019-04-27T20:25:57.377Z,7.76
2019-04-27T20:28:27.196Z,7.58
2019-04-27T20:30:57.110Z,7.66
2019-04-27T20:33:27.054Z,7.64
2019-04-27T20:35:56.988Z,7.41
2019-04-27T20:38:26.889Z,7.45
2019-04-27T20:40:56.798Z,7.57
2019-04-27T20:43:26.657Z,7.66
2019-04-27T20:45:56.590Z,7.41
2019-04-27T20:48:27.619Z,7.35
2019-04-27T20:50:57.679Z,7.49
2019-04-27T20:53:32.312Z,7.21
2019-04-27T20:56:02.310Z,7.25
2019-04-27T20:58:32.239Z,7.24
2019-04-27T21:01:02.218Z,7.12
2019-04-27T21:03:41.063Z,7.36
2019-04-27T21:06:28.042Z,7.55
2019-04-27T21:08:57.932Z,7.60
2019-04-27T21:11:43.383Z,7.41
2019-04-27T21:14:13.466Z,7.21
2019-04-27T21:16:43.589Z,7.21
2019-04-27T21:19:15.099Z,7.06
2019-04-27T21:21:45.119Z,6.94
2019-04-27T21:24:14.979Z,7.07
2019-04-27T21:26:47.327Z,7.06
2019-04-27T21:29:17.149Z,7.19
2019-04-27T21:31:47.043Z,7.21
2019-04-27T21:34:16.875Z,7.73
2019-04-27T21:36:46.782Z,8.07
2019-04-27T21:39:16.705Z,7.52
2019-04-27T21:41:46.763Z,7.33
2019-04-27T21:44:16.951Z,7.29
2019-04-27T21:46:46.769Z,7.16
2019-04-27T21:49:16.666Z,7.10
2019-04-27T21:52:04.659Z,7.54
2019-04-27T21:54:35.472Z,7.44
2019-04-27T21:57:05.422Z,7.28
2019-04-27T21:59:35.423Z,7.31
2019-04-27T22:02:06.869Z,7.61
2019-04-27T22:04:36.983Z,7.46
2019-04-27T22:07:06.940Z,7.41
2019-04-27T22:09:36.938Z,7.48
2019-04-27T22:12:06.950Z,7.30
2019-04-27T22:14:36.945Z,7.50
2019-04-27T22:17:06.833Z,7.62
2019-04-27T22:19:36.821Z,7.66
2019-04-27T22:22:12.564Z,7.33
2019-04-27T22:24:43.091Z,7.45
2019-04-27T22:27:13.107Z,7.53
2019-04-27T22:29:42.933Z,7.64
2019-04-27T22:32:12.988Z,7.31
2019-04-27T22:34:43.001Z,7.16
2019-04-27T22:37:12.895Z,7.39
2019-04-27T22:39:52.762Z,7.45
2019-04-27T22:42:41.725Z,7.29
2019-04-27T22:45:16.553Z,7.12
2019-04-27T22:47:46.380Z,7.17
2019-04-27T22:50:16.442Z,7.12
2019-04-27T22:52:46.494Z,6.94
2019-04-27T22:55:16.514Z,6.98
2019-04-27T22:57:51.767Z,6.70
2019-04-27T23:00:41.794Z,6.77
2019-04-27T23:03:15.301Z,6.70
2019-04-27T23:05:45.211Z,6.44
2019-04-27T23:08:15.289Z,6.77
2019-04-27T23:10:45.186Z,6.77
2019-04-27T23:13:15.144Z,6.60
2019-04-27T23:15:47.369Z,6.80
2019-04-27T23:18:17.277Z,6.94
2019-04-27T23:20:47.264Z,6.73
2019-04-27T23:23:17.254Z,6.60
2019-04-27T23:25:47.142Z,6.89
2019-04-27T23:28:17.081Z,7.26
2019-04-27T23:31:02.267Z,7.60
2019-04-27T23:33:31.279Z,6.90
2019-04-27T23:36:01.617Z,6.82
2019-04-27T23:38:31.590Z,6.54
2019-04-27T23:41:01.886Z,6.40
2019-04-27T23:43:31.899Z,6.56
2019-04-27T23:46:01.954Z,6.56
2019-04-27T23:48:32.156Z,6.73
2019-04-27T23:51:12.750Z,7.00
2019-04-27T23:53:42.654Z,6.87
2019-04-27T23:56:15.581Z,6.89
2019-04-27T23:58:45.477Z,6.85
